Latest Weather Observations for Badgerys Creek

IDN60801

Issued at 7:06 am EDT Tuesday 3 March 2015 (issued every 30 minutes, with the page automatically refreshed every 10 minutes)

About weather observations | Map of weather stations | Latest weather observations for NSW | Other Formats
Station Details ID: 067108 Name: BADGERYS CREEK AWS Lat: -33.90 Lon: 150.73 Height: 81.2 m
Data from the previous 72 hours. | See also: Recent months at Badgerys Creek
Date/Time
EDT
Temp
°C
App
Temp
°C
Dew
Point
Rel
Hum
%
Delta-T
°C
Wind Press
QNH
hPa
Press
MSL
hPa
Rain
since 9 am
mm
Dir
 
Spd
km/h
Gust
km/h
Spd
kts
Gust
kts
03/07:00am 14.1 15.2 13.6 97 0.3 CALM 0 0 0 0 1015.5 1015.2 0.2
03/06:30am 14.2 15.4 13.7 97 0.3 CALM 0 0 0 0 1015.3 1015.0 0.2
03/06:00am 14.4 15.5 13.6 95 0.4 CALM 0 0 0 0 1015.0 1014.7 0.2
03/05:30am 14.7 15.2 14.1 96 0.3 NNE 4 4 2 2 1015.2 1014.9 0.2
03/05:00am 14.4 15.1 13.3 93 0.6 NNE 2 4 1 2 1015.3 1015.0 0.2
03/04:30am 15.3 15.8 14.0 92 0.7 NNE 4 6 2 3 1015.1 1014.8 0.2
03/04:00am 15.5 16.9 14.4 93 0.6 CALM 0 0 0 0 1015.4 1015.1 0.2
03/03:30am 16.1 17.5 14.5 90 0.9 CALM 0 0 0 0 1015.4 1015.1 0.2
03/03:00am 16.6 18.0 14.4 87 1.3 CALM 0 0 0 0 1015.8 1015.6 0.2
03/02:30am 17.2 18.8 15.0 87 1.3 CALM 0 0 0 0 1016.1 1015.9 0.2
03/02:00am 18.3 19.2 15.2 82 1.8 NNE 4 6 2 3 1016.4 1016.2 0.2
03/01:30am 19.0 20.7 15.3 79 2.2 CALM 0 2 0 1 1017.1 1016.9 0.2
03/01:00am 19.1 19.7 15.2 78 2.3 NNE 6 6 3 3 1017.3 1017.1 0.2
03/12:30am 19.3 20.4 15.6 79 2.2 NNE 4 4 2 2 1017.8 1017.5 0.2
03/12:00am 19.6 20.8 14.8 74 2.8 NNE 2 4 1 2 1018.1 1017.8 0.2
 
Date/Time
EDT
Temp
°C
App
Temp
°C
Dew
Point
Rel
Hum
%
Delta-T
°C
Wind Press
QNH
hPa
Press
MSL
hPa
Rain
since 9 am
mm
Dir
 
Spd
km/h
Gust
km/h
Spd
kts
Gust
kts
02/11:30pm 19.6 20.4 14.8 74 2.8 NNE 4 4 2 2 1018.1 1017.8 0.2
02/11:00pm 19.6 20.0 14.8 74 2.8 NNE 6 6 3 3 1018.0 1017.7 0.2
02/10:30pm 19.8 20.6 14.8 73 2.9 NNE 4 6 2 3 1018.1 1017.8 0.2
02/10:00pm 19.8 20.0 14.2 70 3.2 NNE 6 9 3 5 1018.1 1017.8 0.2
02/09:30pm 20.2 20.1 13.9 67 3.6 NE 7 9 4 5 1018.0 1017.7 0.2
02/09:00pm 20.4 20.3 13.8 66 3.8 NE 7 11 4 6 1017.9 1017.6 0.2
02/08:30pm 20.7 20.7 14.1 66 3.8 NE 7 9 4 5 1017.9 1017.6 0.2
02/08:00pm 20.8 21.1 14.5 67 3.7 NE 6 9 3 5 1017.8 1017.5 0.2
02/07:30pm 21.0 21.1 14.4 66 3.9 NE 7 9 4 5 1017.3 1017.1 0.2
02/07:00pm 21.5 21.2 14.4 64 4.2 ENE 9 13 5 7 1017.0 1016.8 0.2
02/06:30pm 21.6 21.7 14.5 64 4.2 NE 7 9 4 5 1017.0 1016.8 0.2
02/06:00pm 21.8 20.5 14.7 64 4.2 ENE 15 19 8 10 1016.9 1016.7 0.2
02/05:30pm 22.4 22.2 15.7 66 4.0 E 11 15 6 8 1016.7 1016.5 0.2
02/05:00pm 22.3 21.7 15.6 66 4.0 E 13 20 7 11 1016.8 1016.6 0.2
02/04:30pm 22.0 21.8 15.6 67 3.8 E 11 15 6 8 1016.8 1016.6 0.2
02/04:00pm 21.7 20.7 15.5 68 3.7 ENE 15 20 8 11 1016.9 1016.7 0.2
02/03:30pm 22.5 22.2 15.4 64 4.3 E 11 17 6 9 1017.1 1016.9 0.2
02/03:00pm 22.2 22.2 15.1 64 4.2 ESE 9 13 5 7 1017.5 1017.2 0.2
02/02:30pm 22.8 23.3 15.6 64 4.3 E 7 17 4 9 1017.8 1017.5 0.2
02/02:00pm 22.2 22.6 15.3 65 4.1 ESE 7 11 4 6 1018.1 1017.8 0.2
02/01:30pm 22.0 21.9 14.9 64 4.2 E 9 13 5 7 1018.6 1018.3 0.2
02/01:00pm 22.2 22.5 15.1 64 4.2 SE 7 13 4 7 1018.8 1018.5 0.2
02/12:30pm 22.4 22.1 14.5 61 4.7 SSE 9 17 5 9 1019.0 1018.7 0.2
02/12:00pm 22.5 22.8 14.6 61 4.7 SE 6 11 3 6 1019.2 1018.9 0.2
02/11:30am 21.9 22.0 14.0 61 4.6 SSE 6 9 3 5 1019.6 1019.3 0.2
02/11:00am 21.4 21.7 14.6 65 4.0 SSW 6 13 3 7 1019.5 1019.2 0.2
02/10:30am 20.8 20.8 14.2 66 3.8 SW 7 13 4 7 1019.5 1019.2 0.2
02/10:00am 20.0 18.5 13.2 65 3.9 SW 13 17 7 9 1019.5 1019.2 0.0
02/09:30am 19.3 17.8 13.0 67 3.6 SW 13 19 7 10 1019.4 1019.1 0.0
02/09:00am 18.9 17.3 12.9 68 3.4 SSW 13 20 7 11 1019.2 1018.9 8.4
02/08:30am 18.1 16.7 12.3 69 3.2 SW 11 17 6 9 1018.9 1018.6 8.4
02/08:00am 17.5 16.2 12.6 73 2.7 SW 11 15 6 8 1019.0 1018.7 8.4
02/07:30am 17.2 15.4 12.1 72 2.8 SW 13 19 7 10 1018.8 1018.5 8.4
02/07:00am 16.4 14.9 11.8 74 2.5 SW 11 13 6 7 1018.4 1018.1 8.4
02/06:30am 16.5 15.2 11.4 72 2.8 SW 9 13 5 7 1017.9 1017.6 8.4
02/06:00am 17.2 15.6 11.7 70 3.0 SW 11 15 6 8 1017.5 1017.2 8.4
02/05:30am 17.6 15.6 11.6 68 3.3 SW 13 19 7 10 1017.5 1017.2 8.4
02/05:00am 17.4 15.6 12.1 71 2.9 SW 13 17 7 9 1017.5 1017.2 8.4
02/04:30am 17.5 15.3 12.2 71 2.9 SW 15 20 8 11 1016.9 1016.7 8.4
02/04:00am 17.7 16.0 12.4 71 2.9 SW 13 15 7 8 1016.9 1016.7 8.4
02/03:30am 18.0 16.2 12.2 69 3.2 SW 13 17 7 9 1017.2 1017.0 8.4
02/03:00am 18.0 16.8 12.7 71 3.0 SW 11 17 6 9 1017.7 1017.4 8.4
02/02:30am 18.2 16.9 12.6 70 3.1 SW 11 15 6 8 1017.7 1017.4 8.4
02/02:00am 18.5 17.2 12.5 68 3.4 SW 11 17 6 9 1017.5 1017.2 8.4
02/01:30am 18.7 17.5 12.7 68 3.4 SSW 11 15 6 8 1017.6 1017.3 8.4
02/01:00am 18.9 17.6 12.6 67 3.5 S 11 19 6 10 1017.6 1017.3 8.4
02/12:30am 19.1 17.9 12.8 67 3.6 SSW 11 17 6 9 1017.7 1017.4 8.4
02/12:00am 19.3 17.7 12.8 66 3.7 S 13 19 7 10 1017.5 1017.2 8.4
 
Date/Time
EDT
Temp
°C
App
Temp
°C
Dew
Point
Rel
Hum
%
Delta-T
°C
Wind Press
QNH
hPa
Press
MSL
hPa
Rain
since 9 am
mm
Dir
 
Spd
km/h
Gust
km/h
Spd
kts
Gust
kts
01/11:30pm 19.5 18.4 13.2 67 3.6 S 11 19 6 10 1017.3 1017.1 8.4
01/11:00pm 19.5 19.0 13.9 70 3.2 SSW 9 13 5 7 1017.2 1017.0 8.4
01/10:30pm 19.6 18.4 14.0 70 3.2 SSW 13 20 7 11 1016.7 1016.5 8.4
01/10:00pm 19.7 18.1 13.9 69 3.3 SSW 15 24 8 13 1016.4 1016.2 8.4
01/09:30pm 19.8 17.9 14.2 70 3.3 SSW 17 24 9 13 1015.7 1015.5 8.4
01/09:00pm 19.6 19.1 14.8 74 2.8 S 11 17 6 9 1015.2 1014.9 8.4
01/08:30pm 19.6 18.6 15.5 77 2.4 S 15 22 8 12 1014.2 1013.9 8.4
01/08:00pm 19.5 17.7 15.6 78 2.3 S 19 35 10 19 1013.4 1013.1 8.4
01/07:32pm 19.2 15.9 16.1 82 1.9 S 28 46 15 25 1012.3 1012.0 8.4
01/07:30pm 19.3 15.6 16.0 81 2.0 S 30 46 16 25 1012.2 1011.9 8.4
01/07:00pm 20.2 17.8 17.4 84 1.7 S 26 35 14 19 1011.2 1010.9 6.6
01/06:30pm 21.6 21.1 18.6 83 1.9 S 19 32 10 17 1010.1 1009.8 6.6
01/06:00pm 22.1 23.1 19.5 85 1.7 SSE 13 28 7 15 1009.5 1009.2 6.6
01/05:30pm 22.0 22.2 20.6 92 0.9 SSW 20 32 11 17 1008.0 1007.7 6.6
01/05:00pm 20.9 19.1 20.4 97 0.3 S 30 44 16 24 1006.0 1005.7 6.6
01/04:39pm 22.9 18.4 19.1 79 2.4 S 41 74 22 40 1007.9 1007.6 0.0
01/04:32pm 24.1 20.7 19.0 73 3.3 S 35 56 19 30 1005.9 1005.6 0.0
01/04:30pm 24.3 20.5 18.9 72 3.4 SSE 37 56 20 30 1005.7 1005.4 0.0
01/04:21pm 25.9 23.6 19.3 67 4.3 SSE 30 52 16 28 1004.6 1004.3 0.0
01/04:00pm 28.5 28.3 18.6 55 6.4 SSE 17 33 9 18 1003.5 1003.2 0.0
01/03:30pm 32.0 30.9 16.3 39 9.9 WSW 17 54 9 29 1003.0 1002.7 0.0
01/03:28pm 33.1 32.3 16.0 35 10.8 W 15 54 8 29 1003.0 1002.7 0.0
01/03:00pm 35.7 35.4 16.4 31 12.4 NW 13 19 7 10 1002.6 1002.3 0.0
01/02:30pm 35.3 36.0 17.0 33 11.8 NW 9 13 5 7 1003.3 1003.0 0.0
01/02:00pm 34.9 35.1 17.6 35 11.2 NNW 13 19 7 10 1003.7 1003.4 0.0
01/01:30pm 34.4 35.3 19.2 40 10.0 NNE 13 17 7 9 1004.0 1003.7 0.0
01/01:00pm 33.4 35.6 19.5 44 9.2 NNE 7 13 4 7 1004.9 1004.5 0.0
01/12:30pm 31.9 33.9 19.9 49 7.9 NNE 9 13 5 7 1005.4 1005.1 0.0
01/12:00pm 30.7 32.9 19.7 52 7.3 NNE 7 11 4 6 1005.9 1005.6 0.0
01/11:30am 29.4 32.0 20.0 57 6.2 NNE 6 11 3 6 1006.3 1006.0 0.0
01/11:00am 27.5 30.3 19.6 62 5.2 N 4 6 2 3 1006.5 1006.2 0.0
01/10:30am 26.7 29.2 19.8 66 4.5 ENE 6 9 3 5 1006.4 1006.0 0.0
01/10:00am 25.0 28.4 19.4 71 3.6 CALM 0 4 0 2 1006.6 1006.2 0.0
01/09:30am 23.4 26.9 20.3 83 2.0 NNE 2 6 1 3 1006.6 1006.2 0.0
01/09:00am 21.6 25.0 20.2 92 0.9 NW 2 6 1 3 1006.7 1006.3 0.0
01/08:30am 20.4 24.3 20.4 100 0.0 CALM 0 2 0 1 1006.4 1006.0 0.0
01/08:00am 19.3 22.3 19.3 100 0.0 SW 2 6 1 3 1006.6 1006.2 0.0
01/07:30am 18.1 19.8 18.1 100 0.0 SW 6 7 3 4 1006.6 1006.2 0.0
01/07:00am 17.6 19.1 17.6 100 0.0 SW 6 6 3 3 1006.4 1006.0 0.0
01/06:30am 17.3 19.1 17.3 100 0.0 SW 4 6 2 3 1006.1 1005.7 0.0
01/06:00am 17.0 18.6 17.0 100 0.0 SW 4 6 2 3 1005.8 1005.4 0.0
01/05:30am 17.5 20.1 17.5 100 0.0 CALM 0 4 0 2 1005.7 1005.3 0.0
01/05:00am 17.9 19.5 17.9 100 0.0 SW 6 7 3 4 1005.6 1005.2 0.0
01/04:30am 18.2 20.0 18.2 100 0.0 SW 6 7 3 4 1005.7 1005.3 0.0
01/04:00am 17.9 19.5 17.9 100 0.0 SW 6 6 3 3 1005.9 1005.5 0.0
01/03:30am 18.1 19.8 18.1 100 0.0 SW 6 6 3 3 1006.2 1005.8 0.0
01/03:00am 18.2 19.9 18.0 99 0.1 SW 6 6 3 3 1006.5 1006.1 0.0
01/02:30am 18.4 21.3 18.1 98 0.2 CALM 0 0 0 0 1006.7 1006.3 0.0
01/02:00am 18.8 21.8 18.5 98 0.2 CALM 0 0 0 0 1006.9 1006.5 0.0
01/01:30am 18.9 21.5 18.4 97 0.3 ENE 2 6 1 3 1007.5 1007.1 0.0
01/01:00am 19.6 22.8 18.9 96 0.4 CALM 0 0 0 0 1007.7 1007.3 0.0
01/12:30am 19.7 23.0 19.0 96 0.4 CALM 0 0 0 0 1008.1 1007.7 0.0
01/12:00am 20.3 23.8 19.5 95 0.5 CALM 0 0 0 0 1008.3 1007.9 0.0
 
Date/Time
EDT
Temp
°C
App
Temp
°C
Dew
Point
Rel
Hum
%
Delta-T
°C
Wind Press
QNH
hPa
Press
MSL
hPa
Rain
since 9 am
mm
Dir
 
Spd
km/h
Gust
km/h
Spd
kts
Gust
kts
28/11:30pm 20.4 23.6 18.9 91 0.9 CALM 0 0 0 0 1008.5 1008.1 0.0
28/11:00pm 21.2 24.0 18.9 87 1.5 ENE 2 2 1 1 1008.6 1008.2 0.0
28/10:30pm 21.9 25.3 19.3 85 1.7 CALM 0 6 0 3 1008.8 1008.4 0.0
28/10:00pm 22.3 24.9 19.3 83 1.9 E 4 6 2 3 1008.8 1008.4 0.0
28/09:30pm 22.6 25.1 19.0 80 2.3 ESE 4 4 2 2 1008.8 1008.4 0.0
28/09:00pm 23.6 26.1 19.1 76 2.9 E 4 6 2 3 1008.4 1008.0 0.0
28/08:30pm 24.5 26.6 19.3 73 3.3 E 7 11 4 6 1008.0 1007.6 0.0
28/08:00pm 25.4 27.2 19.5 70 3.8 E 9 13 5 7 1007.7 1007.3 0.0
28/07:30pm 26.3 27.6 19.4 66 4.5 E 11 15 6 8 1007.2 1006.8 0.0
28/07:00pm 27.5 28.0 19.3 61 5.3 E 15 20 8 11 1006.9 1006.5 0.0
28/06:30pm 28.2 28.8 19.4 59 5.7 ESE 15 24 8 13 1006.9 1006.5 0.0
28/06:00pm 29.2 30.2 19.5 56 6.4 ESE 13 19 7 10 1006.9 1006.5 0.0
28/05:30pm 30.1 31.1 19.5 53 6.9 ESE 13 19 7 10 1006.9 1006.5 0.0
28/05:00pm 30.7 32.2 18.8 49 7.8 E 9 17 5 9 1006.9 1006.5 0.0
28/04:30pm 31.4 31.3 16.9 41 9.2 E 13 20 7 11 1007.0 1006.6 0.0
28/04:00pm 30.2 29.7 15.9 42 8.9 NE 13 20 7 11 1007.2 1006.8 0.0
28/03:30pm 30.6 30.7 16.6 43 8.8 NNE 11 17 6 9 1007.5 1007.1 0.0
28/03:00pm 29.4 29.0 16.2 44 8.2 N 13 19 7 10 1008.1 1007.7 0.0
28/02:30pm 29.2 28.8 15.3 42 8.5 N 11 20 6 11 1008.4 1008.0 0.0
28/02:00pm 29.4 29.3 15.9 44 8.4 NNE 11 19 6 10 1008.5 1008.1 0.0
28/01:30pm 28.6 28.4 15.8 45 7.9 NNE 11 19 6 10 1009.1 1008.7 0.0
28/01:00pm 27.9 28.0 16.5 50 7.1 N 11 20 6 11 1009.5 1009.1 0.0
28/12:30pm 26.7 28.3 19.1 63 4.9 NE 9 17 5 9 1010.0 1009.6 0.0
28/12:00pm 25.6 27.3 19.3 68 4.1 NNE 9 13 5 7 1010.3 1009.9 0.0
28/11:30am 24.6 27.3 20.3 77 2.8 NE 6 11 3 6 1010.8 1010.4 0.0
28/11:00am 22.2 24.5 19.4 84 1.8 ENE 6 9 3 5 1011.1 1010.7 0.0
28/10:30am 21.8 25.5 20.8 94 0.7 NE 2 6 1 3 1011.4 1011.0 0.0
28/10:00am 20.8 24.9 20.8 100 0.0 CALM 0 2 0 1 1011.4 1011.0 0.0
28/09:30am 19.9 23.6 19.9 100 0.0 CALM 0 2 0 1 1011.2 1010.8 0.0
28/09:00am 19.4 22.8 19.4 100 0.0 CALM 0 0 0 0 1011.3 1010.9 0.2
28/08:30am 19.2 22.5 19.2 100 0.0 CALM 0 0 0 0 1011.1 1010.7 0.2
28/08:00am 18.5 21.5 18.5 100 0.0 CALM 0 2 0 1 1010.9 1010.5 0.2
28/07:30am 17.7 20.0 17.7 100 0.0 S 2 4 1 2 1010.7 1010.3 0.2

Other Formats:

Comma delimited format used in spreadsheet applications
http://www.bom.gov.au/fwo/IDN60801/IDN60801.94752.axf

JavaScript Object Notation format (JSON) in row-major order
http://www.bom.gov.au/fwo/IDN60801/IDN60801.94752.json